Allensville, Kentucky
Current Conditions -  °F | °C
As of 3:52 PM on Friday 24 Oct 2014 (Local Time) from KCKV Reporting Station
Few Clouds Few Clouds  
Wind Chill: 68°   Ceiling: Unl
Heat Index: 68°   Visibility: 10mi
Dew Point: 45°   Wind: 3mph
Humidity: 43%   Direction: 230°SW
Pressure: 30.06"   Gusts: NA
Location:  36.72°N, 87.07°W
Report Text: KCKV 242052Z AUTO 23003KT 10SM FEW046 20/07 A3006 RMK AO2 SLP179 T02000072 56016
Loading
Personal Weather Stations






























Interactive Weather Map
Tropical Storm Tracking
New forecast layout! Learn more

10-Day Weather Forecast

Advertisements
Track Severe Weather on mobile